createdAt,value
2022-10-22T00:00:54.415Z,16.50
2022-10-22T00:03:22.218Z,15.90
2022-10-22T00:05:49.981Z,16.40
2022-10-22T00:08:17.717Z,16.30
2022-10-22T00:10:45.485Z,16.10
2022-10-22T00:13:14.727Z,16.40
2022-10-22T00:15:42.502Z,16.00
2022-10-22T00:18:10.236Z,16.40
2022-10-22T00:20:38.028Z,16.00
2022-10-22T00:23:05.840Z,16.00
2022-10-22T00:25:36.239Z,16.40
2022-10-22T00:28:04.276Z,16.00
2022-10-22T00:30:33.338Z,16.40
2022-10-22T00:33:01.171Z,16.20
2022-10-22T00:35:28.956Z,16.30
2022-10-22T00:37:56.706Z,16.30
2022-10-22T00:40:24.565Z,16.00
2022-10-22T00:42:52.414Z,16.20
2022-10-22T00:45:24.115Z,16.10
2022-10-22T00:47:57.879Z,16.10
2022-10-22T00:50:30.220Z,15.60
2022-10-22T00:52:59.454Z,16.30
2022-10-22T00:55:28.802Z,16.10
2022-10-22T00:57:58.177Z,15.90
2022-10-22T01:00:26.560Z,16.20
2022-10-22T01:02:56.266Z,16.10
2022-10-22T01:05:24.504Z,15.80
2022-10-22T01:07:53.951Z,16.00
2022-10-22T01:10:43.385Z,15.90
2022-10-22T01:13:20.655Z,15.90
2022-10-22T01:15:58.613Z,16.20
2022-10-22T01:18:32.668Z,15.80
2022-10-22T01:21:10.620Z,15.80
2022-10-22T01:24:02.768Z,16.00
2022-10-22T01:26:42.726Z,16.10
2022-10-22T01:29:16.692Z,16.00
2022-10-22T01:31:47.635Z,16.00
2022-10-22T01:34:18.375Z,15.90
2022-10-22T01:36:47.708Z,15.70
2022-10-22T01:39:17.164Z,15.70
2022-10-22T01:41:46.233Z,15.40
2022-10-22T01:44:30.514Z,15.90
2022-10-22T01:47:12.320Z,15.70
2022-10-22T01:50:05.395Z,15.80
2022-10-22T01:52:50.179Z,15.80
2022-10-22T01:55:26.872Z,15.90
2022-10-22T01:58:04.021Z,16.00
2022-10-22T02:00:33.339Z,15.60
2022-10-22T02:03:06.620Z,15.90
2022-10-22T02:05:40.896Z,15.40
2022-10-22T02:08:12.947Z,16.00
2022-10-22T02:10:42.809Z,15.70
2022-10-22T02:13:14.875Z,15.90
2022-10-22T02:15:48.455Z,16.10
2022-10-22T02:18:17.610Z,15.90
2022-10-22T02:20:45.428Z,15.70
2022-10-22T02:23:13.710Z,15.40
2022-10-22T02:25:45.252Z,15.70
2022-10-22T02:28:17.816Z,15.30
2022-10-22T02:30:53.825Z,15.20
2022-10-22T02:33:23.452Z,15.70
2022-10-22T02:35:53.257Z,15.30
2022-10-22T02:38:22.743Z,15.70
2022-10-22T02:40:50.855Z,15.30
2022-10-22T02:43:19.367Z,15.50
2022-10-22T02:45:48.683Z,15.90
2022-10-22T02:48:16.689Z,15.20
2022-10-22T02:50:44.673Z,15.60
2022-10-22T02:53:12.423Z,15.80
2022-10-22T02:55:40.124Z,15.30
2022-10-22T02:58:07.873Z,15.90
2022-10-22T03:00:35.653Z,15.40
2022-10-22T03:03:04.776Z,15.00
2022-10-22T03:05:32.529Z,15.40
2022-10-22T03:08:00.308Z,15.40
2022-10-22T03:10:28.053Z,15.00
2022-10-22T03:12:56.016Z,15.70
2022-10-22T03:15:23.780Z,15.30
2022-10-22T03:17:51.594Z,15.70
2022-10-22T03:20:20.666Z,15.20
2022-10-22T03:22:48.674Z,15.60
2022-10-22T03:25:21.552Z,15.70
2022-10-22T03:27:50.789Z,15.10
2022-10-22T03:30:18.712Z,15.20
2022-10-22T03:32:46.512Z,15.00
2022-10-22T03:35:14.387Z,15.60
2022-10-22T03:37:43.803Z,15.30
2022-10-22T03:40:12.667Z,15.40
2022-10-22T03:42:41.211Z,15.60
2022-10-22T03:45:09.861Z,15.70
2022-10-22T03:47:37.951Z,15.60
2022-10-22T03:50:07.061Z,15.20
2022-10-22T03:52:37.827Z,15.20
2022-10-22T03:55:08.521Z,14.80
2022-10-22T03:57:36.369Z,15.40
2022-10-22T04:00:06.061Z,15.80
2022-10-22T04:02:33.817Z,15.20
2022-10-22T04:05:01.562Z,15.20
2022-10-22T04:07:29.526Z,15.40
2022-10-22T04:09:57.212Z,15.70
2022-10-22T04:12:26.278Z,15.50
2022-10-22T04:14:54.029Z,15.00
2022-10-22T04:17:21.756Z,14.80
2022-10-22T04:19:49.457Z,14.70
2022-10-22T04:22:17.197Z,14.80
2022-10-22T04:24:44.941Z,15.30
2022-10-22T04:27:12.737Z,15.30
2022-10-22T04:29:41.807Z,15.10
2022-10-22T04:32:09.513Z,15.00
2022-10-22T04:34:37.232Z,15.00
2022-10-22T04:37:05.036Z,14.70
2022-10-22T04:39:32.906Z,14.80
2022-10-22T04:42:00.660Z,14.90
2022-10-22T04:44:28.392Z,14.30
2022-10-22T04:46:57.477Z,14.90
2022-10-22T04:49:25.294Z,14.50
2022-10-22T04:51:52.996Z,14.40
2022-10-22T04:54:20.808Z,14.90
2022-10-22T04:56:48.524Z,14.40
2022-10-22T04:59:16.296Z,14.40
2022-10-22T05:01:45.864Z,14.60
2022-10-22T05:04:17.285Z,14.50
2022-10-22T05:06:45.135Z,14.60
2022-10-22T05:09:15.079Z,14.40
2022-10-22T05:11:48.225Z,14.50
2022-10-22T05:14:17.232Z,14.40
2022-10-22T05:19:17.895Z,14.90
2022-10-22T05:21:45.704Z,14.80
2022-10-22T05:24:13.783Z,14.50
2022-10-22T05:26:41.532Z,15.20
2022-10-22T05:29:09.308Z,14.50
2022-10-22T05:31:37.062Z,14.60
2022-10-22T05:34:04.773Z,14.80
2022-10-22T05:36:33.841Z,15.30
2022-10-22T05:39:01.592Z,15.00
2022-10-22T05:41:30.303Z,14.60
2022-10-22T05:43:59.481Z,14.90
2022-10-22T05:46:29.050Z,14.90
2022-10-22T05:48:59.016Z,14.40
2022-10-22T05:51:27.955Z,14.50
2022-10-22T05:53:58.714Z,14.80
2022-10-22T05:56:27.686Z,14.40
2022-10-22T05:58:55.962Z,14.80
2022-10-22T06:01:25.933Z,15.00
2022-10-22T06:03:55.546Z,15.20
2022-10-22T06:06:29.959Z,14.60
2022-10-22T06:09:03.125Z,14.20
2022-10-22T06:11:34.182Z,14.70
2022-10-22T06:14:03.330Z,14.70
2022-10-22T06:16:31.599Z,14.50
2022-10-22T06:19:01.739Z,14.70
2022-10-22T06:21:30.205Z,14.70
2022-10-22T06:24:00.358Z,14.30
2022-10-22T06:26:28.427Z,14.70
2022-10-22T06:28:56.679Z,14.90
2022-10-22T06:31:24.898Z,14.90
2022-10-22T06:33:52.710Z,14.70
2022-10-22T06:36:21.999Z,14.90
2022-10-22T06:38:53.122Z,15.00
2022-10-22T06:41:25.578Z,15.00
2022-10-22T06:43:57.232Z,14.80
2022-10-22T06:46:27.125Z,15.10
2022-10-22T06:48:56.716Z,15.20
2022-10-22T06:51:24.809Z,14.80
2022-10-22T06:53:52.598Z,14.60
2022-10-22T06:56:23.969Z,14.80
2022-10-22T06:58:52.348Z,15.10
2022-10-22T07:01:22.349Z,15.20
2022-10-22T07:03:51.787Z,14.80
2022-10-22T07:06:20.914Z,14.80
2022-10-22T07:08:49.049Z,15.30
2022-10-22T07:11:19.494Z,14.90
2022-10-22T07:13:49.671Z,15.50
2022-10-22T07:16:19.104Z,15.30
2022-10-22T07:18:47.508Z,15.60
2022-10-22T07:21:17.373Z,16.80
2022-10-22T07:23:45.763Z,17.10
2022-10-22T07:26:15.377Z,18.10
2022-10-22T07:28:43.718Z,18.80
2022-10-22T07:31:14.316Z,19.70
2022-10-22T07:33:42.443Z,20.90
2022-10-22T07:36:17.304Z,21.20
2022-10-22T07:38:45.676Z,21.50
2022-10-22T07:41:13.552Z,21.60
2022-10-22T07:43:41.507Z,21.80
2022-10-22T07:46:09.454Z,22.30
2022-10-22T07:48:38.960Z,22.90
2022-10-22T07:51:07.246Z,23.40
2022-10-22T07:53:35.296Z,23.90
2022-10-22T07:56:03.195Z,24.30
2022-10-22T07:58:31.488Z,24.30
2022-10-22T08:01:01.313Z,24.30
2022-10-22T08:03:30.578Z,24.10
2022-10-22T08:05:59.733Z,23.40
2022-10-22T08:08:30.776Z,22.90
2022-10-22T08:11:00.210Z,22.20
2022-10-22T08:13:30.329Z,21.60
2022-10-22T08:15:58.675Z,21.60
2022-10-22T08:18:26.423Z,22.20
2022-10-22T08:20:54.595Z,22.50
2022-10-22T08:23:27.429Z,22.80
2022-10-22T08:25:57.348Z,22.80
2022-10-22T08:28:25.359Z,22.80
2022-10-22T08:30:53.049Z,23.10
2022-10-22T08:33:21.029Z,23.70
2022-10-22T08:35:49.635Z,24.10
2022-10-22T08:38:17.934Z,24.10
2022-10-22T08:40:50.104Z,23.90
2022-10-22T08:43:41.651Z,24.60
2022-10-22T08:46:19.609Z,25.50
2022-10-22T08:48:50.492Z,25.90
2022-10-22T08:51:21.272Z,25.50
2022-10-22T08:54:15.190Z,25.10
2022-10-22T08:56:48.763Z,25.20
2022-10-22T08:59:21.175Z,25.80
2022-10-22T09:01:52.480Z,26.00
2022-10-22T09:04:25.440Z,26.90
2022-10-22T09:06:54.767Z,27.10
2022-10-22T09:09:22.979Z,26.70
2022-10-22T09:11:54.376Z,26.80
2022-10-22T09:14:24.822Z,26.70
2022-10-22T09:17:11.436Z,27.10
2022-10-22T09:19:47.455Z,26.90
2022-10-22T09:22:23.716Z,26.60
2022-10-22T09:24:59.391Z,26.50
2022-10-22T09:27:30.744Z,26.80
2022-10-22T09:29:58.889Z,27.30
2022-10-22T09:32:26.705Z,27.30
2022-10-22T09:34:57.635Z,27.10
2022-10-22T09:37:28.305Z,26.80
2022-10-22T09:39:58.768Z,26.80
2022-10-22T09:42:27.994Z,27.40
2022-10-22T09:44:59.053Z,28.00
2022-10-22T09:47:43.149Z,28.00
2022-10-22T09:50:26.293Z,27.70
2022-10-22T09:53:01.694Z,27.90
2022-10-22T09:55:29.812Z,28.00
2022-10-22T09:58:01.149Z,28.20
2022-10-22T10:00:30.418Z,28.30
2022-10-22T10:02:59.527Z,28.30
2022-10-22T10:05:29.887Z,28.40
2022-10-22T10:07:58.074Z,28.90
2022-10-22T10:10:35.573Z,28.10
2022-10-22T10:13:18.515Z,28.80
2022-10-22T10:15:53.110Z,29.20
2022-10-22T10:18:35.120Z,29.70
2022-10-22T10:21:10.951Z,29.80
2022-10-22T10:23:49.459Z,29.50
2022-10-22T10:26:25.248Z,29.40
2022-10-22T10:29:11.720Z,29.70
2022-10-22T10:31:48.820Z,29.30
2022-10-22T10:34:27.698Z,28.50
2022-10-22T10:37:02.724Z,27.70
2022-10-22T10:39:43.384Z,27.40
2022-10-22T10:42:22.548Z,27.10
2022-10-22T10:45:02.856Z,27.30
2022-10-22T10:48:02.126Z,27.70
2022-10-22T10:50:38.168Z,28.10
2022-10-22T10:53:15.415Z,28.30
2022-10-22T10:55:54.760Z,27.60
2022-10-22T10:58:31.044Z,27.50
2022-10-22T11:01:09.790Z,27.40
2022-10-22T11:03:59.318Z,27.30
2022-10-22T11:06:30.427Z,26.90
2022-10-22T11:09:01.911Z,26.50
2022-10-22T11:11:35.759Z,26.50
2022-10-22T11:14:10.984Z,26.50
2022-10-22T11:16:43.435Z,26.40
2022-10-22T11:19:22.735Z,26.50
2022-10-22T11:22:04.975Z,25.60
2022-10-22T11:24:40.297Z,25.10
2022-10-22T11:27:16.549Z,24.90
2022-10-22T11:29:48.823Z,24.80
2022-10-22T11:32:21.215Z,24.90
2022-10-22T11:34:54.192Z,25.70
2022-10-22T11:37:23.319Z,26.40
2022-10-22T11:39:55.286Z,26.40
2022-10-22T11:42:24.625Z,26.50
2022-10-22T11:45:04.559Z,26.20
2022-10-22T11:47:36.485Z,26.90
2022-10-22T11:50:21.581Z,26.60
2022-10-22T11:52:55.948Z,27.00
2022-10-22T11:55:45.479Z,27.00
2022-10-22T11:58:32.618Z,26.90
2022-10-22T12:01:28.476Z,26.90
2022-10-22T12:04:23.147Z,27.00
2022-10-22T12:06:55.653Z,25.80
2022-10-22T12:09:25.969Z,24.90
2022-10-22T12:11:53.757Z,24.20
2022-10-22T12:14:26.523Z,23.80
2022-10-22T12:16:58.096Z,23.60
2022-10-22T12:19:30.956Z,23.10
2022-10-22T12:22:02.499Z,23.50
2022-10-22T12:24:37.394Z,23.50
2022-10-22T12:27:08.190Z,23.30
2022-10-22T12:29:36.398Z,23.50
2022-10-22T12:32:05.263Z,23.00
2022-10-22T12:34:34.341Z,22.80
2022-10-22T12:37:05.902Z,22.30
2022-10-22T12:39:35.345Z,22.80
2022-10-22T12:42:06.049Z,22.70
2022-10-22T12:44:33.924Z,22.60
2022-10-22T12:47:01.658Z,22.40
2022-10-22T12:49:38.023Z,22.40
2022-10-22T12:52:10.918Z,22.60
2022-10-22T12:54:41.595Z,22.60
2022-10-22T12:57:14.406Z,22.70
2022-10-22T12:59:47.270Z,22.60
2022-10-22T13:02:22.263Z,22.50
2022-10-22T13:05:27.150Z,22.40
2022-10-22T13:08:02.765Z,22.50
2022-10-22T13:10:34.548Z,22.20
2022-10-22T13:13:03.905Z,21.90
2022-10-22T13:15:40.302Z,21.50
2022-10-22T13:18:17.865Z,21.70
2022-10-22T13:20:55.281Z,21.50
2022-10-22T13:23:25.974Z,21.80
2022-10-22T13:26:03.729Z,21.90
2022-10-22T13:28:33.909Z,22.10
2022-10-22T13:31:04.381Z,22.10
2022-10-22T13:33:36.443Z,22.20
2022-10-22T13:36:06.245Z,22.30
2022-10-22T13:38:34.056Z,22.10
2022-10-22T13:41:03.286Z,21.80
2022-10-22T13:43:31.172Z,21.80
2022-10-22T13:46:00.977Z,21.70
2022-10-22T13:48:31.007Z,21.60
2022-10-22T13:50:58.842Z,21.60
2022-10-22T13:53:29.663Z,21.70
2022-10-22T13:55:57.405Z,21.50
2022-10-22T13:58:25.559Z,21.50
2022-10-22T14:00:56.998Z,21.10
2022-10-22T14:03:28.950Z,21.60
2022-10-22T14:05:57.085Z,21.80
2022-10-22T14:08:27.837Z,21.70
2022-10-22T14:10:56.213Z,21.60
2022-10-22T14:13:23.980Z,21.60
2022-10-22T14:15:53.125Z,21.10
2022-10-22T14:18:25.462Z,21.30
2022-10-22T14:20:54.868Z,20.80
2022-10-22T14:23:25.261Z,21.00
2022-10-22T14:25:55.037Z,21.10
2022-10-22T14:28:22.993Z,21.20
2022-10-22T14:30:51.698Z,20.80
2022-10-22T14:33:24.737Z,20.80
2022-10-22T14:35:54.985Z,20.90
2022-10-22T14:38:23.256Z,20.50
2022-10-22T14:40:51.379Z,21.00
2022-10-22T14:43:23.210Z,20.90
2022-10-22T14:45:51.312Z,20.90
2022-10-22T14:50:48.309Z,21.10
2022-10-22T14:53:16.773Z,21.30
2022-10-22T14:55:49.016Z,21.10
2022-10-22T14:58:17.074Z,21.40
2022-10-22T15:00:46.224Z,21.50
2022-10-22T15:03:13.980Z,21.50
2022-10-22T15:05:43.865Z,21.60
2022-10-22T15:08:12.219Z,21.60
2022-10-22T15:10:40.147Z,21.50
2022-10-22T15:13:07.948Z,21.60
2022-10-22T15:15:39.639Z,21.50
2022-10-22T15:18:09.174Z,21.30
2022-10-22T15:20:36.970Z,21.20
2022-10-22T15:23:04.902Z,20.70
2022-10-22T15:25:32.684Z,20.80
2022-10-22T15:28:02.049Z,21.00
2022-10-22T15:30:35.299Z,20.70
2022-10-22T15:33:03.315Z,20.80
2022-10-22T15:35:32.416Z,20.50
2022-10-22T15:38:00.143Z,20.80
2022-10-22T15:40:27.941Z,20.70
2022-10-22T15:42:55.677Z,20.50
2022-10-22T15:45:24.939Z,20.30
2022-10-22T15:47:52.662Z,20.50
2022-10-22T15:50:20.445Z,20.40
2022-10-22T15:52:49.517Z,19.90
2022-10-22T15:55:17.422Z,20.20
2022-10-22T15:57:45.846Z,20.40
2022-10-22T16:00:14.530Z,20.20
2022-10-22T16:02:42.262Z,20.10
2022-10-22T16:05:10.837Z,19.80
2022-10-22T16:07:38.785Z,20.00
2022-10-22T16:10:12.574Z,20.20
2022-10-22T16:12:41.243Z,19.90
2022-10-22T16:15:10.695Z,19.80
2022-10-22T16:17:38.434Z,19.70
2022-10-22T16:20:07.191Z,19.60
2022-10-22T16:22:34.949Z,19.70
2022-10-22T16:25:02.684Z,20.00
2022-10-22T16:27:31.788Z,19.80
2022-10-22T16:29:59.781Z,19.10
2022-10-22T16:32:27.743Z,19.00
2022-10-22T16:34:55.464Z,19.30
2022-10-22T16:37:23.214Z,18.70
2022-10-22T16:39:51.173Z,19.20
2022-10-22T16:42:18.882Z,19.10
2022-10-22T16:44:47.953Z,19.00
2022-10-22T16:47:15.655Z,18.50
2022-10-22T16:49:43.372Z,18.70
2022-10-22T16:52:11.177Z,18.80
2022-10-22T16:54:38.913Z,18.70
2022-10-22T16:57:06.636Z,18.80
2022-10-22T16:59:34.515Z,18.90
2022-10-22T17:04:32.446Z,18.90
2022-10-22T17:07:00.288Z,18.70
2022-10-22T17:09:28.242Z,18.40
2022-10-22T17:11:55.982Z,18.20
2022-10-22T17:14:23.832Z,18.30
2022-10-22T17:16:53.606Z,18.30
2022-10-22T17:19:24.207Z,18.20
2022-10-22T17:21:53.431Z,18.20
2022-10-22T17:24:21.355Z,17.80
2022-10-22T17:26:49.085Z,17.60
2022-10-22T17:29:17.980Z,17.80
2022-10-22T17:31:45.746Z,17.60
2022-10-22T17:34:17.471Z,17.30
2022-10-22T17:36:46.829Z,18.00
2022-10-22T17:39:18.375Z,17.50
2022-10-22T17:41:46.579Z,17.40
2022-10-22T17:44:16.396Z,17.10
2022-10-22T17:46:45.209Z,17.30
2022-10-22T17:49:17.323Z,17.40
2022-10-22T17:51:46.725Z,17.30
2022-10-22T17:54:15.104Z,17.50
2022-10-22T17:56:42.836Z,17.80
2022-10-22T17:59:13.291Z,17.60
2022-10-22T18:01:45.221Z,17.40
2022-10-22T18:04:16.470Z,17.50
2022-10-22T18:06:45.106Z,17.70
2022-10-22T18:09:18.718Z,18.00
2022-10-22T18:11:47.482Z,17.70
2022-10-22T18:14:15.548Z,17.40
2022-10-22T18:16:43.301Z,17.10
2022-10-22T18:19:11.876Z,17.50
2022-10-22T18:21:39.884Z,17.20
2022-10-22T18:24:08.334Z,17.50
2022-10-22T18:26:37.942Z,17.40
2022-10-22T18:29:05.960Z,16.90
2022-10-22T18:31:33.752Z,17.60
2022-10-22T18:34:01.476Z,17.20
2022-10-22T18:36:29.530Z,17.30
2022-10-22T18:38:59.521Z,17.50
2022-10-22T18:41:28.691Z,17.10
2022-10-22T18:43:59.380Z,17.60
2022-10-22T18:46:27.847Z,17.50
2022-10-22T18:48:56.638Z,17.50
2022-10-22T18:51:26.245Z,17.30
2022-10-22T18:54:05.418Z,17.50
2022-10-22T18:56:43.371Z,17.30
2022-10-22T18:59:21.390Z,16.70
2022-10-22T19:01:49.392Z,16.70
2022-10-22T19:04:17.394Z,17.00
2022-10-22T19:06:46.119Z,16.80
2022-10-22T19:09:15.131Z,16.90
2022-10-22T19:11:44.362Z,17.00
2022-10-22T19:14:13.502Z,17.00
2022-10-22T19:16:43.516Z,17.20
2022-10-22T19:19:15.597Z,16.90
2022-10-22T19:21:43.454Z,16.30
2022-10-22T19:24:12.650Z,16.80
2022-10-22T19:26:40.794Z,16.70
2022-10-22T19:29:10.871Z,16.20
2022-10-22T19:31:40.824Z,16.80
2022-10-22T19:34:11.347Z,16.40
2022-10-22T19:36:39.352Z,16.40
2022-10-22T19:39:07.666Z,16.40
2022-10-22T19:41:35.993Z,16.70
2022-10-22T19:44:03.918Z,16.60
2022-10-22T19:46:32.631Z,16.20
2022-10-22T19:49:02.546Z,16.80
2022-10-22T19:51:33.659Z,16.70
2022-10-22T19:54:03.845Z,16.30
2022-10-22T19:56:32.295Z,16.70
2022-10-22T19:59:00.684Z,16.40
2022-10-22T20:01:29.162Z,16.40
2022-10-22T20:03:57.148Z,16.70
2022-10-22T20:06:25.154Z,16.80
2022-10-22T20:08:56.185Z,16.50
2022-10-22T20:11:26.330Z,16.80
2022-10-22T20:13:54.138Z,16.80
2022-10-22T20:16:24.209Z,16.40
2022-10-22T20:18:52.238Z,16.60
2022-10-22T20:21:20.268Z,16.70
2022-10-22T20:23:49.252Z,16.60
2022-10-22T20:26:18.401Z,16.70
2022-10-22T20:28:46.180Z,16.40
2022-10-22T20:31:17.404Z,16.70
2022-10-22T20:33:45.309Z,16.70
2022-10-22T20:36:17.383Z,16.20
2022-10-22T20:38:47.942Z,16.30
2022-10-22T20:41:19.082Z,16.10
2022-10-22T20:43:47.801Z,16.20
2022-10-22T20:46:18.564Z,16.40
2022-10-22T20:48:46.798Z,16.10
2022-10-22T20:51:14.935Z,16.30
2022-10-22T20:53:42.897Z,16.30
2022-10-22T20:56:11.100Z,15.80
2022-10-22T20:58:46.001Z,16.10
2022-10-22T21:01:18.516Z,15.90
2022-10-22T21:03:46.751Z,15.90
2022-10-22T21:06:14.564Z,16.00
2022-10-22T21:08:42.339Z,15.40
2022-10-22T21:11:10.228Z,15.50
2022-10-22T21:13:37.960Z,15.90
2022-10-22T21:16:13.077Z,15.90
2022-10-22T21:18:41.128Z,16.10
2022-10-22T21:21:10.503Z,15.50
2022-10-22T21:23:38.584Z,16.00
2022-10-22T21:26:06.581Z,15.70
2022-10-22T21:28:35.787Z,15.70
2022-10-22T21:31:03.777Z,16.20
2022-10-22T21:33:33.378Z,16.20
2022-10-22T21:36:01.231Z,16.10
2022-10-22T21:38:29.036Z,16.40
2022-10-22T21:40:56.785Z,16.60
2022-10-22T21:43:24.564Z,16.60
2022-10-22T21:45:52.324Z,16.50
2022-10-22T21:48:20.085Z,16.40
2022-10-22T21:50:49.844Z,16.60
2022-10-22T21:53:17.571Z,16.20
2022-10-22T21:55:45.280Z,15.90
2022-10-22T21:58:13.016Z,16.00
2022-10-22T22:00:40.769Z,16.70
2022-10-22T22:03:08.944Z,16.40
2022-10-22T22:05:36.972Z,16.70
2022-10-22T22:08:06.406Z,16.30
2022-10-22T22:10:34.184Z,16.40
2022-10-22T22:13:01.934Z,16.10
2022-10-22T22:15:31.489Z,16.40
2022-10-22T22:17:59.217Z,16.40
2022-10-22T22:20:27.000Z,15.80
2022-10-22T22:22:54.781Z,16.20
2022-10-22T22:25:23.893Z,16.00
2022-10-22T22:27:51.620Z,15.50
2022-10-22T22:30:19.453Z,16.10
2022-10-22T22:32:47.226Z,15.80
2022-10-22T22:35:15.108Z,15.30
2022-10-22T22:37:43.176Z,15.80
2022-10-22T22:40:12.388Z,15.60
2022-10-22T22:42:41.455Z,15.60
2022-10-22T22:45:09.592Z,15.60
2022-10-22T22:47:37.337Z,15.60
2022-10-22T22:50:05.614Z,15.10
2022-10-22T22:52:33.366Z,15.30
2022-10-22T22:55:01.147Z,15.20
2022-10-22T22:57:28.920Z,15.00
2022-10-22T22:59:57.976Z,15.00
2022-10-22T23:02:25.817Z,15.00
2022-10-22T23:04:53.587Z,15.20
2022-10-22T23:07:21.292Z,15.30
2022-10-22T23:09:49.063Z,15.10
2022-10-22T23:12:16.805Z,14.60
2022-10-22T23:14:44.614Z,15.20
2022-10-22T23:17:13.662Z,14.60
2022-10-22T23:19:41.361Z,14.70
2022-10-22T23:22:09.059Z,14.70
2022-10-22T23:24:37.533Z,14.30
2022-10-22T23:27:05.583Z,14.00
2022-10-22T23:29:35.685Z,14.60
2022-10-22T23:32:05.750Z,14.00
2022-10-22T23:34:34.812Z,14.80
2022-10-22T23:37:02.526Z,14.60
2022-10-22T23:39:30.944Z,14.60
2022-10-22T23:41:58.902Z,14.40
2022-10-22T23:44:26.981Z,14.40
2022-10-22T23:46:55.113Z,14.60
2022-10-22T23:49:22.879Z,14.10
2022-10-22T23:51:51.954Z,14.60
2022-10-22T23:54:19.991Z,14.10
2022-10-22T23:56:48.011Z,14.30
2022-10-22T23:59:16.509Z,13.90
